sensor_id;sensor_type;location;lat;lon;timestamp;P1;durP1;ratioP1;P2;durP2;ratioP2
52480;SDS011;38393;52.404;13.532;2023-05-08T00:01:41;8.77;;;5.10;;
52480;SDS011;38393;52.404;13.532;2023-05-08T00:04:07;8.37;;;5.30;;
52480;SDS011;38393;52.404;13.532;2023-05-08T00:06:32;7.07;;;5.10;;
52480;SDS011;38393;52.404;13.532;2023-05-08T00:08:58;7.17;;;4.97;;
52480;SDS011;38393;52.404;13.532;2023-05-08T00:11:23;9.27;;;5.17;;
52480;SDS011;38393;52.404;13.532;2023-05-08T00:13:49;9.57;;;4.90;;
52480;SDS011;38393;52.404;13.532;2023-05-08T00:16:14;7.77;;;4.90;;
52480;SDS011;38393;52.404;13.532;2023-05-08T00:18:40;12.43;;;5.10;;
52480;SDS011;38393;52.404;13.532;2023-05-08T00:21:06;7.97;;;5.17;;
52480;SDS011;38393;52.404;13.532;2023-05-08T00:23:31;8.33;;;5.10;;
52480;SDS011;38393;52.404;13.532;2023-05-08T00:25:57;7.40;;;4.73;;
52480;SDS011;38393;52.404;13.532;2023-05-08T00:28:23;10.27;;;5.17;;
52480;SDS011;38393;52.404;13.532;2023-05-08T00:30:48;8.83;;;5.40;;
52480;SDS011;38393;52.404;13.532;2023-05-08T00:33:14;6.77;;;4.80;;
52480;SDS011;38393;52.404;13.532;2023-05-08T00:35:40;7.67;;;5.10;;
52480;SDS011;38393;52.404;13.532;2023-05-08T00:38:06;7.90;;;4.73;;
52480;SDS011;38393;52.404;13.532;2023-05-08T00:40:32;10.37;;;5.57;;
52480;SDS011;38393;52.404;13.532;2023-05-08T00:42:58;10.77;;;5.17;;
52480;SDS011;38393;52.404;13.532;2023-05-08T00:45:23;8.67;;;5.17;;
52480;SDS011;38393;52.404;13.532;2023-05-08T00:47:50;9.40;;;5.33;;
52480;SDS011;38393;52.404;13.532;2023-05-08T00:50:16;8.90;;;5.30;;
52480;SDS011;38393;52.404;13.532;2023-05-08T00:52:42;9.60;;;5.57;;
52480;SDS011;38393;52.404;13.532;2023-05-08T00:55:07;8.23;;;5.20;;
52480;SDS011;38393;52.404;13.532;2023-05-08T00:57:33;10.60;;;5.47;;
52480;SDS011;38393;52.404;13.532;2023-05-08T01:00:00;8.37;;;5.23;;
52480;SDS011;38393;52.404;13.532;2023-05-08T01:02:27;9.33;;;5.20;;
52480;SDS011;38393;52.404;13.532;2023-05-08T01:04:55;8.50;;;5.00;;
52480;SDS011;38393;52.404;13.532;2023-05-08T01:07:21;8.57;;;5.00;;
52480;SDS011;38393;52.404;13.532;2023-05-08T01:09:47;9.20;;;5.33;;
52480;SDS011;38393;52.404;13.532;2023-05-08T01:12:28;8.67;;;5.53;;
52480;SDS011;38393;52.404;13.532;2023-05-08T01:15:17;8.57;;;5.20;;
52480;SDS011;38393;52.404;13.532;2023-05-08T01:17:56;8.80;;;5.23;;
52480;SDS011;38393;52.404;13.532;2023-05-08T01:23:16;8.33;;;4.87;;
52480;SDS011;38393;52.404;13.532;2023-05-08T01:26:10;10.17;;;5.47;;
52480;SDS011;38393;52.404;13.532;2023-05-08T01:31:49;8.70;;;5.50;;
52480;SDS011;38393;52.404;13.532;2023-05-08T01:34:34;8.80;;;5.40;;
52480;SDS011;38393;52.404;13.532;2023-05-08T01:37:11;9.47;;;5.53;;
52480;SDS011;38393;52.404;13.532;2023-05-08T01:42:32;9.43;;;5.07;;
52480;SDS011;38393;52.404;13.532;2023-05-08T01:45:13;8.60;;;5.60;;
52480;SDS011;38393;52.404;13.532;2023-05-08T01:48:03;9.13;;;5.17;;
52480;SDS011;38393;52.404;13.532;2023-05-08T01:50:32;10.90;;;5.77;;
52480;SDS011;38393;52.404;13.532;2023-05-08T01:53:22;9.57;;;5.70;;
52480;SDS011;38393;52.404;13.532;2023-05-08T01:55:53;9.20;;;5.73;;
52480;SDS011;38393;52.404;13.532;2023-05-08T01:58:22;11.90;;;5.47;;
52480;SDS011;38393;52.404;13.532;2023-05-08T02:00:49;10.30;;;5.50;;
52480;SDS011;38393;52.404;13.532;2023-05-08T02:03:16;9.17;;;5.47;;
52480;SDS011;38393;52.404;13.532;2023-05-08T02:05:44;9.23;;;5.53;;
52480;SDS011;38393;52.404;13.532;2023-05-08T02:08:12;8.77;;;5.33;;
52480;SDS011;38393;52.404;13.532;2023-05-08T02:10:39;10.60;;;5.70;;
52480;SDS011;38393;52.404;13.532;2023-05-08T02:13:06;9.23;;;5.13;;
52480;SDS011;38393;52.404;13.532;2023-05-08T02:15:34;9.37;;;5.70;;
52480;SDS011;38393;52.404;13.532;2023-05-08T02:18:02;11.87;;;5.40;;
52480;SDS011;38393;52.404;13.532;2023-05-08T02:20:30;11.97;;;6.00;;
52480;SDS011;38393;52.404;13.532;2023-05-08T02:22:57;9.87;;;5.67;;
52480;SDS011;38393;52.404;13.532;2023-05-08T02:25:23;10.93;;;5.30;;
52480;SDS011;38393;52.404;13.532;2023-05-08T02:27:50;10.70;;;5.70;;
52480;SDS011;38393;52.404;13.532;2023-05-08T02:30:17;11.27;;;5.77;;
52480;SDS011;38393;52.404;13.532;2023-05-08T02:32:45;9.73;;;5.53;;
52480;SDS011;38393;52.404;13.532;2023-05-08T02:35:13;9.97;;;5.77;;
52480;SDS011;38393;52.404;13.532;2023-05-08T02:37:44;10.43;;;5.87;;
52480;SDS011;38393;52.404;13.532;2023-05-08T02:40:13;9.53;;;5.80;;
52480;SDS011;38393;52.404;13.532;2023-05-08T02:42:40;12.53;;;6.23;;
52480;SDS011;38393;52.404;13.532;2023-05-08T02:45:06;10.93;;;6.27;;
52480;SDS011;38393;52.404;13.532;2023-05-08T02:47:44;9.73;;;5.83;;
52480;SDS011;38393;52.404;13.532;2023-05-08T02:50:28;12.23;;;6.20;;
52480;SDS011;38393;52.404;13.532;2023-05-08T02:53:02;11.90;;;6.60;;
52480;SDS011;38393;52.404;13.532;2023-05-08T02:55:33;11.97;;;6.40;;
52480;SDS011;38393;52.404;13.532;2023-05-08T03:01:03;10.27;;;5.60;;
52480;SDS011;38393;52.404;13.532;2023-05-08T03:03:35;8.93;;;5.53;;
52480;SDS011;38393;52.404;13.532;2023-05-08T03:06:06;10.63;;;6.30;;
52480;SDS011;38393;52.404;13.532;2023-05-08T03:08:36;11.13;;;6.17;;
52480;SDS011;38393;52.404;13.532;2023-05-08T03:11:18;13.77;;;6.43;;
52480;SDS011;38393;52.404;13.532;2023-05-08T03:13:48;11.83;;;6.17;;
52480;SDS011;38393;52.404;13.532;2023-05-08T03:16:16;10.87;;;6.40;;
52480;SDS011;38393;52.404;13.532;2023-05-08T03:18:51;11.53;;;5.90;;
52480;SDS011;38393;52.404;13.532;2023-05-08T03:21:19;14.07;;;6.63;;
52480;SDS011;38393;52.404;13.532;2023-05-08T03:23:47;12.60;;;6.60;;
52480;SDS011;38393;52.404;13.532;2023-05-08T03:26:16;12.33;;;6.33;;
52480;SDS011;38393;52.404;13.532;2023-05-08T03:28:47;12.13;;;6.30;;
52480;SDS011;38393;52.404;13.532;2023-05-08T03:31:14;10.10;;;5.87;;
52480;SDS011;38393;52.404;13.532;2023-05-08T03:33:44;12.57;;;6.53;;
52480;SDS011;38393;52.404;13.532;2023-05-08T03:36:16;12.33;;;5.97;;
52480;SDS011;38393;52.404;13.532;2023-05-08T03:38:42;10.97;;;6.00;;
52480;SDS011;38393;52.404;13.532;2023-05-08T03:41:07;11.77;;;6.87;;
52480;SDS011;38393;52.404;13.532;2023-05-08T03:43:35;11.57;;;5.70;;
52480;SDS011;38393;52.404;13.532;2023-05-08T03:46:01;12.00;;;6.83;;
52480;SDS011;38393;52.404;13.532;2023-05-08T03:48:28;12.83;;;6.27;;
52480;SDS011;38393;52.404;13.532;2023-05-08T03:50:57;10.87;;;5.90;;
52480;SDS011;38393;52.404;13.532;2023-05-08T03:53:24;12.90;;;7.00;;
52480;SDS011;38393;52.404;13.532;2023-05-08T03:55:50;11.13;;;6.07;;
52480;SDS011;38393;52.404;13.532;2023-05-08T04:01:03;13.10;;;6.60;;
52480;SDS011;38393;52.404;13.532;2023-05-08T04:03:43;10.90;;;6.43;;
52480;SDS011;38393;52.404;13.532;2023-05-08T04:06:29;10.53;;;5.77;;
52480;SDS011;38393;52.404;13.532;2023-05-08T04:12:21;12.30;;;6.47;;
52480;SDS011;38393;52.404;13.532;2023-05-08T04:15:02;12.67;;;6.20;;
52480;SDS011;38393;52.404;13.532;2023-05-08T04:20:17;11.77;;;6.13;;
52480;SDS011;38393;52.404;13.532;2023-05-08T04:22:44;11.13;;;6.40;;
52480;SDS011;38393;52.404;13.532;2023-05-08T04:25:13;13.77;;;6.47;;
52480;SDS011;38393;52.404;13.532;2023-05-08T04:27:41;9.40;;;5.77;;
52480;SDS011;38393;52.404;13.532;2023-05-08T04:30:08;10.60;;;5.90;;
52480;SDS011;38393;52.404;13.532;2023-05-08T04:32:34;10.10;;;5.47;;
52480;SDS011;38393;52.404;13.532;2023-05-08T04:35:01;11.90;;;6.67;;
52480;SDS011;38393;52.404;13.532;2023-05-08T04:37:27;10.90;;;6.13;;
52480;SDS011;38393;52.404;13.532;2023-05-08T04:39:55;10.13;;;6.10;;
52480;SDS011;38393;52.404;13.532;2023-05-08T04:42:21;10.70;;;5.77;;
52480;SDS011;38393;52.404;13.532;2023-05-08T04:44:48;10.23;;;6.07;;
52480;SDS011;38393;52.404;13.532;2023-05-08T04:47:13;9.70;;;5.87;;
52480;SDS011;38393;52.404;13.532;2023-05-08T04:49:39;11.13;;;5.73;;
52480;SDS011;38393;52.404;13.532;2023-05-08T04:52:04;9.87;;;5.40;;
52480;SDS011;38393;52.404;13.532;2023-05-08T04:54:33;10.87;;;5.60;;
52480;SDS011;38393;52.404;13.532;2023-05-08T04:56:58;10.40;;;5.67;;
52480;SDS011;38393;52.404;13.532;2023-05-08T04:59:24;11.03;;;5.90;;
52480;SDS011;38393;52.404;13.532;2023-05-08T05:01:50;9.97;;;5.43;;
52480;SDS011;38393;52.404;13.532;2023-05-08T05:04:15;10.43;;;5.50;;
52480;SDS011;38393;52.404;13.532;2023-05-08T05:06:41;8.90;;;5.13;;
52480;SDS011;38393;52.404;13.532;2023-05-08T05:09:07;10.40;;;5.73;;
52480;SDS011;38393;52.404;13.532;2023-05-08T05:11:33;9.80;;;5.43;;
52480;SDS011;38393;52.404;13.532;2023-05-08T05:13:58;10.30;;;5.33;;
52480;SDS011;38393;52.404;13.532;2023-05-08T05:16:24;11.23;;;5.60;;
52480;SDS011;38393;52.404;13.532;2023-05-08T05:18:50;9.70;;;5.80;;
52480;SDS011;38393;52.404;13.532;2023-05-08T05:21:15;12.37;;;5.40;;
52480;SDS011;38393;52.404;13.532;2023-05-08T05:23:41;9.13;;;5.43;;
52480;SDS011;38393;52.404;13.532;2023-05-08T05:26:06;9.67;;;5.20;;
52480;SDS011;38393;52.404;13.532;2023-05-08T05:28:32;9.80;;;5.03;;
52480;SDS011;38393;52.404;13.532;2023-05-08T05:30:57;9.23;;;5.30;;
52480;SDS011;38393;52.404;13.532;2023-05-08T05:33:23;7.87;;;4.90;;
52480;SDS011;38393;52.404;13.532;2023-05-08T05:35:48;7.93;;;4.80;;
52480;SDS011;38393;52.404;13.532;2023-05-08T05:38:14;8.57;;;4.83;;
52480;SDS011;38393;52.404;13.532;2023-05-08T05:40:39;8.83;;;4.83;;
52480;SDS011;38393;52.404;13.532;2023-05-08T05:43:05;7.83;;;4.43;;
52480;SDS011;38393;52.404;13.532;2023-05-08T05:45:30;8.27;;;4.90;;
52480;SDS011;38393;52.404;13.532;2023-05-08T05:47:56;8.30;;;4.73;;
52480;SDS011;38393;52.404;13.532;2023-05-08T05:50:21;7.57;;;4.43;;
52480;SDS011;38393;52.404;13.532;2023-05-08T05:52:47;6.30;;;4.50;;
52480;SDS011;38393;52.404;13.532;2023-05-08T05:55:12;6.83;;;4.03;;
52480;SDS011;38393;52.404;13.532;2023-05-08T05:57:38;7.97;;;4.40;;
52480;SDS011;38393;52.404;13.532;2023-05-08T06:00:04;6.63;;;4.43;;
52480;SDS011;38393;52.404;13.532;2023-05-08T06:02:30;7.67;;;4.30;;
52480;SDS011;38393;52.404;13.532;2023-05-08T06:04:57;7.03;;;4.40;;
52480;SDS011;38393;52.404;13.532;2023-05-08T06:07:23;8.03;;;4.40;;
52480;SDS011;38393;52.404;13.532;2023-05-08T06:09:49;7.37;;;4.00;;
52480;SDS011;38393;52.404;13.532;2023-05-08T06:12:15;7.13;;;4.10;;
52480;SDS011;38393;52.404;13.532;2023-05-08T06:14:42;6.40;;;4.23;;
52480;SDS011;38393;52.404;13.532;2023-05-08T06:17:07;5.73;;;3.83;;
52480;SDS011;38393;52.404;13.532;2023-05-08T06:19:33;5.67;;;3.80;;
52480;SDS011;38393;52.404;13.532;2023-05-08T06:21:58;6.50;;;3.90;;
52480;SDS011;38393;52.404;13.532;2023-05-08T06:24:24;7.83;;;3.97;;
52480;SDS011;38393;52.404;13.532;2023-05-08T06:26:49;6.17;;;3.73;;
52480;SDS011;38393;52.404;13.532;2023-05-08T06:29:15;6.03;;;4.03;;
52480;SDS011;38393;52.404;13.532;2023-05-08T06:31:40;6.43;;;3.90;;
52480;SDS011;38393;52.404;13.532;2023-05-08T06:34:06;7.83;;;3.73;;
52480;SDS011;38393;52.404;13.532;2023-05-08T06:36:31;5.07;;;3.30;;
52480;SDS011;38393;52.404;13.532;2023-05-08T06:38:57;6.53;;;3.70;;
52480;SDS011;38393;52.404;13.532;2023-05-08T06:41:22;7.10;;;3.47;;
52480;SDS011;38393;52.404;13.532;2023-05-08T06:43:48;6.17;;;3.60;;
52480;SDS011;38393;52.404;13.532;2023-05-08T06:46:14;5.93;;;3.43;;
52480;SDS011;38393;52.404;13.532;2023-05-08T06:48:39;4.80;;;3.07;;
52480;SDS011;38393;52.404;13.532;2023-05-08T06:51:05;4.97;;;2.90;;
52480;SDS011;38393;52.404;13.532;2023-05-08T06:53:30;5.50;;;3.00;;
52480;SDS011;38393;52.404;13.532;2023-05-08T06:55:56;4.33;;;2.87;;
52480;SDS011;38393;52.404;13.532;2023-05-08T06:58:22;4.60;;;2.63;;
52480;SDS011;38393;52.404;13.532;2023-05-08T07:00:48;5.33;;;2.70;;
52480;SDS011;38393;52.404;13.532;2023-05-08T07:03:13;4.33;;;2.80;;
52480;SDS011;38393;52.404;13.532;2023-05-08T07:05:39;4.70;;;2.97;;
52480;SDS011;38393;52.404;13.532;2023-05-08T07:08:05;4.40;;;2.90;;
52480;SDS011;38393;52.404;13.532;2023-05-08T07:10:30;4.10;;;2.93;;
52480;SDS011;38393;52.404;13.532;2023-05-08T07:12:56;4.70;;;2.80;;
52480;SDS011;38393;52.404;13.532;2023-05-08T07:15:21;5.20;;;3.03;;
52480;SDS011;38393;52.404;13.532;2023-05-08T07:17:47;4.97;;;3.07;;
52480;SDS011;38393;52.404;13.532;2023-05-08T07:20:12;4.77;;;2.80;;
52480;SDS011;38393;52.404;13.532;2023-05-08T07:22:38;4.77;;;2.90;;
52480;SDS011;38393;52.404;13.532;2023-05-08T07:25:04;5.03;;;2.70;;
52480;SDS011;38393;52.404;13.532;2023-05-08T07:27:29;5.40;;;2.60;;
52480;SDS011;38393;52.404;13.532;2023-05-08T07:29:55;4.33;;;2.77;;
52480;SDS011;38393;52.404;13.532;2023-05-08T07:32:22;6.13;;;2.90;;
52480;SDS011;38393;52.404;13.532;2023-05-08T07:34:48;6.20;;;2.73;;
52480;SDS011;38393;52.404;13.532;2023-05-08T07:37:14;6.20;;;3.10;;
52480;SDS011;38393;52.404;13.532;2023-05-08T07:39:39;3.67;;;2.63;;
52480;SDS011;38393;52.404;13.532;2023-05-08T07:42:05;5.50;;;2.60;;
52480;SDS011;38393;52.404;13.532;2023-05-08T07:44:31;3.93;;;2.57;;
52480;SDS011;38393;52.404;13.532;2023-05-08T07:46:59;4.03;;;2.50;;
52480;SDS011;38393;52.404;13.532;2023-05-08T07:49:24;4.07;;;2.30;;
52480;SDS011;38393;52.404;13.532;2023-05-08T07:51:50;5.87;;;2.57;;
52480;SDS011;38393;52.404;13.532;2023-05-08T07:54:16;3.67;;;2.60;;
52480;SDS011;38393;52.404;13.532;2023-05-08T07:56:41;3.37;;;2.03;;
52480;SDS011;38393;52.404;13.532;2023-05-08T07:59:07;5.57;;;2.57;;
52480;SDS011;38393;52.404;13.532;2023-05-08T08:01:32;3.93;;;2.20;;
52480;SDS011;38393;52.404;13.532;2023-05-08T08:03:58;4.33;;;2.33;;
52480;SDS011;38393;52.404;13.532;2023-05-08T08:06:23;4.23;;;2.40;;
52480;SDS011;38393;52.404;13.532;2023-05-08T08:08:49;5.00;;;2.30;;
52480;SDS011;38393;52.404;13.532;2023-05-08T08:11:14;4.97;;;2.33;;
52480;SDS011;38393;52.404;13.532;2023-05-08T08:13:40;5.57;;;2.43;;
52480;SDS011;38393;52.404;13.532;2023-05-08T08:16:05;3.60;;;2.33;;
52480;SDS011;38393;52.404;13.532;2023-05-08T08:18:34;2.90;;;2.10;;
52480;SDS011;38393;52.404;13.532;2023-05-08T08:21:00;4.90;;;2.30;;
52480;SDS011;38393;52.404;13.532;2023-05-08T08:23:29;6.63;;;2.57;;
52480;SDS011;38393;52.404;13.532;2023-05-08T08:25:54;4.87;;;2.30;;
52480;SDS011;38393;52.404;13.532;2023-05-08T08:28:19;4.07;;;2.30;;
52480;SDS011;38393;52.404;13.532;2023-05-08T08:30:45;3.93;;;2.17;;
52480;SDS011;38393;52.404;13.532;2023-05-08T08:33:10;5.30;;;2.37;;
52480;SDS011;38393;52.404;13.532;2023-05-08T08:35:36;2.83;;;2.03;;
52480;SDS011;38393;52.404;13.532;2023-05-08T08:38:02;3.10;;;2.07;;
52480;SDS011;38393;52.404;13.532;2023-05-08T08:40:27;5.37;;;2.50;;
52480;SDS011;38393;52.404;13.532;2023-05-08T08:42:53;3.10;;;2.33;;
52480;SDS011;38393;52.404;13.532;2023-05-08T08:45:19;3.70;;;2.30;;
52480;SDS011;38393;52.404;13.532;2023-05-08T08:47:44;4.27;;;2.20;;
52480;SDS011;38393;52.404;13.532;2023-05-08T08:50:12;4.13;;;2.40;;
52480;SDS011;38393;52.404;13.532;2023-05-08T08:52:40;3.07;;;2.10;;
52480;SDS011;38393;52.404;13.532;2023-05-08T08:55:23;3.73;;;2.30;;
52480;SDS011;38393;52.404;13.532;2023-05-08T08:57:59;4.80;;;2.50;;
52480;SDS011;38393;52.404;13.532;2023-05-08T09:00:39;6.47;;;2.60;;
52480;SDS011;38393;52.404;13.532;2023-05-08T09:03:05;4.07;;;2.73;;
52480;SDS011;38393;52.404;13.532;2023-05-08T09:05:31;4.10;;;2.70;;
52480;SDS011;38393;52.404;13.532;2023-05-08T09:07:57;4.10;;;2.50;;
52480;SDS011;38393;52.404;13.532;2023-05-08T09:10:23;3.53;;;2.30;;
52480;SDS011;38393;52.404;13.532;2023-05-08T09:12:49;3.40;;;1.93;;
52480;SDS011;38393;52.404;13.532;2023-05-08T09:15:15;3.13;;;2.20;;
52480;SDS011;38393;52.404;13.532;2023-05-08T09:17:40;3.60;;;2.27;;
52480;SDS011;38393;52.404;13.532;2023-05-08T09:20:06;3.73;;;2.20;;
52480;SDS011;38393;52.404;13.532;2023-05-08T09:22:34;3.93;;;2.20;;
52480;SDS011;38393;52.404;13.532;2023-05-08T09:25:00;4.33;;;2.47;;
52480;SDS011;38393;52.404;13.532;2023-05-08T09:27:27;3.63;;;2.10;;
52480;SDS011;38393;52.404;13.532;2023-05-08T09:30:01;4.47;;;2.07;;
52480;SDS011;38393;52.404;13.532;2023-05-08T09:32:31;5.20;;;1.70;;
52480;SDS011;38393;52.404;13.532;2023-05-08T09:34:58;2.73;;;1.83;;
52480;SDS011;38393;52.404;13.532;2023-05-08T09:37:24;4.20;;;2.00;;
52480;SDS011;38393;52.404;13.532;2023-05-08T09:39:51;3.00;;;1.80;;
52480;SDS011;38393;52.404;13.532;2023-05-08T09:42:17;4.47;;;2.20;;
52480;SDS011;38393;52.404;13.532;2023-05-08T09:44:43;7.17;;;2.30;;
52480;SDS011;38393;52.404;13.532;2023-05-08T09:47:16;5.93;;;2.00;;
52480;SDS011;38393;52.404;13.532;2023-05-08T09:49:55;3.13;;;1.83;;
52480;SDS011;38393;52.404;13.532;2023-05-08T09:52:28;3.73;;;2.00;;
52480;SDS011;38393;52.404;13.532;2023-05-08T09:55:07;6.33;;;2.37;;
52480;SDS011;38393;52.404;13.532;2023-05-08T09:57:35;3.57;;;2.00;;
52480;SDS011;38393;52.404;13.532;2023-05-08T10:00:04;3.07;;;2.07;;
52480;SDS011;38393;52.404;13.532;2023-05-08T10:02:33;4.93;;;2.13;;
52480;SDS011;38393;52.404;13.532;2023-05-08T10:04:59;2.30;;;1.90;;
52480;SDS011;38393;52.404;13.532;2023-05-08T10:07:28;5.50;;;2.20;;
52480;SDS011;38393;52.404;13.532;2023-05-08T10:10:02;4.27;;;1.90;;
52480;SDS011;38393;52.404;13.532;2023-05-08T10:12:30;2.60;;;1.80;;
52480;SDS011;38393;52.404;13.532;2023-05-08T10:14:56;3.17;;;1.80;;
52480;SDS011;38393;52.404;13.532;2023-05-08T10:17:24;3.73;;;2.23;;
52480;SDS011;38393;52.404;13.532;2023-05-08T10:19:54;2.57;;;1.90;;
52480;SDS011;38393;52.404;13.532;2023-05-08T10:22:23;3.67;;;2.03;;
52480;SDS011;38393;52.404;13.532;2023-05-08T10:24:51;3.60;;;2.33;;
52480;SDS011;38393;52.404;13.532;2023-05-08T10:27:33;5.83;;;1.97;;
52480;SDS011;38393;52.404;13.532;2023-05-08T10:30:03;2.83;;;2.00;;
52480;SDS011;38393;52.404;13.532;2023-05-08T10:32:30;3.17;;;2.10;;
52480;SDS011;38393;52.404;13.532;2023-05-08T10:35:07;4.20;;;2.10;;
52480;SDS011;38393;52.404;13.532;2023-05-08T10:37:34;2.30;;;1.70;;
52480;SDS011;38393;52.404;13.532;2023-05-08T10:40:02;2.70;;;1.93;;
52480;SDS011;38393;52.404;13.532;2023-05-08T10:42:29;3.55;;;1.95;;
52480;SDS011;38393;52.404;13.532;2023-05-08T10:44:54;2.70;;;1.80;;
52480;SDS011;38393;52.404;13.532;2023-05-08T10:53:16;4.70;;;2.10;;
52480;SDS011;38393;52.404;13.532;2023-05-08T10:55:46;2.90;;;1.90;;
52480;SDS011;38393;52.404;13.532;2023-05-08T10:58:29;3.25;;;1.90;;
52480;SDS011;38393;52.404;13.532;2023-05-08T11:03:27;3.50;;;1.85;;
52480;SDS011;38393;52.404;13.532;2023-05-08T11:05:55;3.25;;;2.03;;
52480;SDS011;38393;52.404;13.532;2023-05-08T11:08:28;2.47;;;1.80;;
52480;SDS011;38393;52.404;13.532;2023-05-08T11:13:26;3.72;;;2.10;;
52480;SDS011;38393;52.404;13.532;2023-05-08T11:15:54;5.50;;;1.92;;
52480;SDS011;38393;52.404;13.532;2023-05-08T11:18:20;2.70;;;2.13;;
52480;SDS011;38393;52.404;13.532;2023-05-08T11:20:59;3.37;;;1.90;;
52480;SDS011;38393;52.404;13.532;2023-05-08T11:23:31;2.47;;;1.80;;
52480;SDS011;38393;52.404;13.532;2023-05-08T11:25:58;2.70;;;1.95;;
52480;SDS011;38393;52.404;13.532;2023-05-08T11:28:31;2.90;;;1.90;;
52480;SDS011;38393;52.404;13.532;2023-05-08T11:31:04;3.33;;;2.13;;
52480;SDS011;38393;52.404;13.532;2023-05-08T11:33:31;3.50;;;2.03;;
52480;SDS011;38393;52.404;13.532;2023-05-08T11:35:59;3.28;;;1.90;;
52480;SDS011;38393;52.404;13.532;2023-05-08T11:38:35;2.33;;;1.70;;
52480;SDS011;38393;52.404;13.532;2023-05-08T11:41:03;3.45;;;1.90;;
52480;SDS011;38393;52.404;13.532;2023-05-08T11:46:02;4.07;;;1.83;;
52480;SDS011;38393;52.404;13.532;2023-05-08T11:48:29;2.97;;;1.90;;
52480;SDS011;38393;52.404;13.532;2023-05-08T11:50:55;2.80;;;1.70;;
52480;SDS011;38393;52.404;13.532;2023-05-08T11:53:21;2.50;;;1.80;;
52480;SDS011;38393;52.404;13.532;2023-05-08T11:55:47;3.13;;;2.10;;
52480;SDS011;38393;52.404;13.532;2023-05-08T11:58:13;5.10;;;2.28;;
52480;SDS011;38393;52.404;13.532;2023-05-08T12:00:42;3.53;;;1.90;;
52480;SDS011;38393;52.404;13.532;2023-05-08T12:03:13;2.67;;;1.88;;
52480;SDS011;38393;52.404;13.532;2023-05-08T12:05:40;3.10;;;1.80;;
52480;SDS011;38393;52.404;13.532;2023-05-08T12:08:06;4.82;;;2.20;;
52480;SDS011;38393;52.404;13.532;2023-05-08T12:13:16;2.47;;;1.98;;
52480;SDS011;38393;52.404;13.532;2023-05-08T12:15:47;3.95;;;2.10;;
52480;SDS011;38393;52.404;13.532;2023-05-08T12:18:14;2.40;;;1.80;;
52480;SDS011;38393;52.404;13.532;2023-05-08T12:20:41;2.90;;;1.90;;
52480;SDS011;38393;52.404;13.532;2023-05-08T12:23:07;3.20;;;1.90;;
52480;SDS011;38393;52.404;13.532;2023-05-08T12:25:34;2.17;;;1.50;;
52480;SDS011;38393;52.404;13.532;2023-05-08T12:28:07;2.45;;;1.83;;
52480;SDS011;38393;52.404;13.532;2023-05-08T12:30:34;2.55;;;1.88;;
52480;SDS011;38393;52.404;13.532;2023-05-08T12:33:00;2.78;;;1.85;;
52480;SDS011;38393;52.404;13.532;2023-05-08T12:35:26;2.42;;;1.70;;
52480;SDS011;38393;52.404;13.532;2023-05-08T12:37:52;3.42;;;2.10;;
52480;SDS011;38393;52.404;13.532;2023-05-08T12:40:23;7.75;;;3.85;;
52480;SDS011;38393;52.404;13.532;2023-05-08T12:42:50;2.55;;;1.70;;
52480;SDS011;38393;52.404;13.532;2023-05-08T12:45:19;2.78;;;1.95;;
52480;SDS011;38393;52.404;13.532;2023-05-08T12:47:47;2.67;;;1.80;;
52480;SDS011;38393;52.404;13.532;2023-05-08T12:50:15;2.45;;;1.60;;
52480;SDS011;38393;52.404;13.532;2023-05-08T12:52:41;5.10;;;1.60;;
52480;SDS011;38393;52.404;13.532;2023-05-08T12:55:24;2.92;;;1.70;;
52480;SDS011;38393;52.404;13.532;2023-05-08T12:57:58;2.83;;;1.80;;
52480;SDS011;38393;52.404;13.532;2023-05-08T13:00:25;2.75;;;1.65;;
52480;SDS011;38393;52.404;13.532;2023-05-08T13:02:57;3.25;;;2.20;;
52480;SDS011;38393;52.404;13.532;2023-05-08T13:05:23;4.68;;;2.00;;
52480;SDS011;38393;52.404;13.532;2023-05-08T13:07:49;3.53;;;1.90;;
52480;SDS011;38393;52.404;13.532;2023-05-08T13:10:15;3.08;;;1.90;;
52480;SDS011;38393;52.404;13.532;2023-05-08T13:12:42;3.63;;;2.15;;
52480;SDS011;38393;52.404;13.532;2023-05-08T13:15:11;2.78;;;2.00;;
52480;SDS011;38393;52.404;13.532;2023-05-08T13:17:36;3.75;;;1.95;;
52480;SDS011;38393;52.404;13.532;2023-05-08T13:20:02;3.30;;;1.90;;
52480;SDS011;38393;52.404;13.532;2023-05-08T13:22:28;2.78;;;1.83;;
52480;SDS011;38393;52.404;13.532;2023-05-08T13:24:54;2.50;;;1.85;;
52480;SDS011;38393;52.404;13.532;2023-05-08T13:27:20;4.18;;;2.30;;
52480;SDS011;38393;52.404;13.532;2023-05-08T13:29:45;3.92;;;2.08;;
52480;SDS011;38393;52.404;13.532;2023-05-08T13:32:11;2.60;;;1.98;;
52480;SDS011;38393;52.404;13.532;2023-05-08T13:34:36;3.13;;;2.33;;
52480;SDS011;38393;52.404;13.532;2023-05-08T13:37:02;2.38;;;1.70;;
52480;SDS011;38393;52.404;13.532;2023-05-08T13:39:27;2.58;;;1.80;;
52480;SDS011;38393;52.404;13.532;2023-05-08T13:41:55;3.35;;;1.75;;
52480;SDS011;38393;52.404;13.532;2023-05-08T13:44:21;2.50;;;1.70;;
52480;SDS011;38393;52.404;13.532;2023-05-08T13:46:47;2.58;;;1.88;;
52480;SDS011;38393;52.404;13.532;2023-05-08T13:49:12;2.53;;;1.90;;
52480;SDS011;38393;52.404;13.532;2023-05-08T13:51:38;2.55;;;1.70;;
52480;SDS011;38393;52.404;13.532;2023-05-08T13:54:03;2.65;;;1.77;;
52480;SDS011;38393;52.404;13.532;2023-05-08T13:56:29;2.47;;;2.00;;
52480;SDS011;38393;52.404;13.532;2023-05-08T13:58:54;2.90;;;2.05;;
52480;SDS011;38393;52.404;13.532;2023-05-08T14:01:20;2.28;;;1.80;;
52480;SDS011;38393;52.404;13.532;2023-05-08T14:03:45;2.72;;;1.95;;
52480;SDS011;38393;52.404;13.532;2023-05-08T14:06:10;2.70;;;1.98;;
52480;SDS011;38393;52.404;13.532;2023-05-08T14:08:36;3.08;;;2.20;;
52480;SDS011;38393;52.404;13.532;2023-05-08T14:11:01;3.42;;;1.95;;
52480;SDS011;38393;52.404;13.532;2023-05-08T14:13:27;2.53;;;1.88;;
52480;SDS011;38393;52.404;13.532;2023-05-08T14:15:52;2.33;;;1.80;;
52480;SDS011;38393;52.404;13.532;2023-05-08T14:18:18;3.92;;;2.15;;
52480;SDS011;38393;52.404;13.532;2023-05-08T14:20:43;3.38;;;2.03;;
52480;SDS011;38393;52.404;13.532;2023-05-08T14:23:09;3.15;;;1.90;;
52480;SDS011;38393;52.404;13.532;2023-05-08T14:25:34;3.97;;;1.90;;
52480;SDS011;38393;52.404;13.532;2023-05-08T14:27:59;2.92;;;2.03;;
52480;SDS011;38393;52.404;13.532;2023-05-08T14:30:25;7.13;;;2.15;;
52480;SDS011;38393;52.404;13.532;2023-05-08T14:32:51;2.50;;;1.90;;
52480;SDS011;38393;52.404;13.532;2023-05-08T14:35:16;2.70;;;1.83;;
52480;SDS011;38393;52.404;13.532;2023-05-08T14:37:41;2.20;;;1.90;;
52480;SDS011;38393;52.404;13.532;2023-05-08T14:40:07;2.20;;;1.83;;
52480;SDS011;38393;52.404;13.532;2023-05-08T14:42:33;2.70;;;1.90;;
52480;SDS011;38393;52.404;13.532;2023-05-08T14:44:58;2.97;;;1.90;;
52480;SDS011;38393;52.404;13.532;2023-05-08T14:47:24;3.75;;;1.90;;
52480;SDS011;38393;52.404;13.532;2023-05-08T14:49:49;2.30;;;1.80;;
52480;SDS011;38393;52.404;13.532;2023-05-08T14:52:17;2.90;;;2.08;;
52480;SDS011;38393;52.404;13.532;2023-05-08T14:54:42;4.00;;;2.08;;
52480;SDS011;38393;52.404;13.532;2023-05-08T14:57:08;4.07;;;2.00;;
52480;SDS011;38393;52.404;13.532;2023-05-08T14:59:33;3.08;;;2.05;;
52480;SDS011;38393;52.404;13.532;2023-05-08T15:01:59;3.58;;;1.80;;
52480;SDS011;38393;52.404;13.532;2023-05-08T15:04:25;3.42;;;2.10;;
52480;SDS011;38393;52.404;13.532;2023-05-08T15:06:50;4.40;;;2.25;;
52480;SDS011;38393;52.404;13.532;2023-05-08T15:09:16;3.22;;;2.20;;
52480;SDS011;38393;52.404;13.532;2023-05-08T15:11:41;2.85;;;2.20;;